Time;durP1;ratioP1;P1;durP2;ratioP2;P2;SDS_P1;SDS_P2;PMS_P1;PMS_P2;Temp;Humidity;BMP_temperature;BMP_pressure;BME280_temperature;BME280_humidity;BME280_pressure;Samples;Min_cycle;Max_cycle;Signal;HPM_P1;HPM_P2
2023/07/12 00:00:46;;;;;;;2.90;1.73;;;21.40;99.90;;;;;;5033146;28;20091;-71
2023/07/12 00:03:12;;;;;;;2.75;1.83;;;21.30;99.90;;;;;;5052804;28;20130;-72
2023/07/12 00:05:38;;;;;;;3.47;1.90;;;21.20;99.90;;;;;;5034413;28;20056;-71
2023/07/12 00:08:04;;;;;;;4.00;1.90;;;21.10;99.90;;;;;;5053208;28;20048;-73
2023/07/12 00:10:35;;;;;;;3.07;1.93;;;21.20;99.90;;;;;;5048701;28;20526;-72
2023/07/12 00:13:02;;;;;;;3.35;1.90;;;21.20;99.90;;;;;;5049505;28;20123;-72
2023/07/12 00:15:30;;;;;;;3.00;1.80;;;21.20;99.90;;;;;;5054119;28;20123;-71
2023/07/12 00:17:56;;;;;;;2.45;1.95;;;21.10;99.90;;;;;;5057186;28;20052;-72
2023/07/12 00:20:30;;;;;;;3.03;1.92;;;21.10;99.90;;;;;;5034897;28;20048;-72
2023/07/12 00:22:56;;;;;;;3.83;2.08;;;21.00;99.90;;;;;;5050745;28;20499;-73
2023/07/12 00:25:25;;;;;;;3.80;1.90;;;21.00;99.90;;;;;;5051899;28;20048;-72
2023/07/12 00:27:51;;;;;;;2.67;1.85;;;21.00;99.90;;;;;;5054736;28;20086;-72
2023/07/12 00:30:32;;;;;;;3.95;2.10;;;20.90;99.90;;;;;;5032075;28;20119;-71
2023/07/12 00:33:02;;;;;;;3.83;2.05;;;21.00;99.90;;;;;;5030914;28;20063;-72
2023/07/12 00:35:29;;;;;;;3.65;2.10;;;20.90;99.90;;;;;;5055730;28;20048;-72
2023/07/12 00:37:57;;;;;;;2.30;2.10;;;20.90;99.90;;;;;;5053973;28;20660;-72
2023/07/12 00:40:59;;;;;;;3.50;2.00;;;20.90;99.90;;;;;;5054431;28;20439;-71
2023/07/12 00:43:39;;;;;;;2.83;2.20;;;20.90;99.90;;;;;;5040877;28;20052;-72
2023/07/12 00:46:29;;;;;;;4.40;2.50;;;20.90;99.90;;;;;;5030710;28;20102;-71
2023/07/12 00:48:55;;;;;;;4.50;2.20;;;20.80;99.90;;;;;;5034073;28;20712;-71
2023/07/12 00:51:26;;;;;;;3.33;2.10;;;20.80;99.90;;;;;;5032362;28;20044;-73
2023/07/12 00:53:54;;;;;;;3.53;2.63;;;20.80;99.90;;;;;;5048060;28;20044;-72
2023/07/12 00:56:19;;;;;;;3.80;2.40;;;20.80;99.90;;;;;;5056682;28;20098;-72
2023/07/12 00:58:48;;;;;;;3.13;2.42;;;20.80;99.90;;;;;;5038217;28;20045;-72
2023/07/12 01:01:14;;;;;;;3.28;2.30;;;20.80;99.90;;;;;;5034330;28;20052;-71
2023/07/12 01:03:43;;;;;;;4.55;2.60;;;20.80;99.90;;;;;;5030970;28;20135;-72
2023/07/12 01:06:12;;;;;;;3.88;2.28;;;20.80;99.90;;;;;;5046859;28;20056;-72
2023/07/12 01:08:43;;;;;;;6.78;2.50;;;20.80;99.90;;;;;;5057534;28;20385;-72
2023/07/12 01:11:13;;;;;;;4.20;2.42;;;20.80;99.90;;;;;;5034894;28;20048;-71
2023/07/12 01:13:42;;;;;;;3.42;2.38;;;20.80;99.90;;;;;;5049094;28;20052;-72
2023/07/12 01:16:10;;;;;;;2.92;2.25;;;20.80;99.90;;;;;;5042623;28;20036;-72
2023/07/12 01:18:36;;;;;;;2.85;2.08;;;20.80;99.90;;;;;;5048479;28;20502;-73
2023/07/12 01:21:09;;;;;;;4.82;2.25;;;20.70;99.90;;;;;;5054289;28;20040;-71
2023/07/12 01:23:35;;;;;;;3.53;2.10;;;20.70;99.90;;;;;;5029489;28;20056;-71
2023/07/12 01:26:16;;;;;;;3.85;2.30;;;20.70;99.90;;;;;;5045175;28;20055;-72
2023/07/12 01:28:42;;;;;;;5.72;2.20;;;20.60;99.90;;;;;;5050522;28;20045;-71
2023/07/12 01:31:07;;;;;;;3.20;1.95;;;20.60;99.90;;;;;;5035212;28;20055;-71
2023/07/12 01:33:33;;;;;;;3.78;2.50;;;20.60;99.90;;;;;;5034598;28;20052;-72
2023/07/12 01:35:59;;;;;;;3.50;2.22;;;20.50;99.90;;;;;;5051968;28;20040;-71
2023/07/12 01:38:24;;;;;;;3.55;2.03;;;20.50;99.90;;;;;;5053477;28;20048;-71
2023/07/12 01:40:50;;;;;;;4.25;2.28;;;20.40;99.90;;;;;;5029542;28;20036;-72
2023/07/12 01:43:17;;;;;;;4.25;2.28;;;20.40;99.90;;;;;;5048046;28;20048;-72
2023/07/12 01:45:42;;;;;;;5.77;2.80;;;20.40;99.90;;;;;;5055457;28;20048;-72
2023/07/12 01:48:08;;;;;;;4.07;2.42;;;20.40;99.90;;;;;;5036430;28;20321;-72
2023/07/12 01:50:33;;;;;;;4.35;2.50;;;20.40;99.90;;;;;;5053455;28;20055;-72
2023/07/12 01:52:59;;;;;;;4.45;2.67;;;20.40;99.90;;;;;;5027857;28;20131;-70
2023/07/12 01:55:25;;;;;;;2.85;2.20;;;20.40;99.90;;;;;;5042709;28;20043;-71
2023/07/12 01:57:50;;;;;;;4.53;2.60;;;20.50;99.90;;;;;;5033685;28;20056;-71
2023/07/12 02:00:16;;;;;;;5.95;2.50;;;20.40;99.90;;;;;;5050762;28;20048;-72
2023/07/12 02:02:42;;;;;;;3.83;2.45;;;20.40;99.90;;;;;;5044516;28;20048;-71
2023/07/12 02:05:08;;;;;;;5.10;2.58;;;20.40;99.90;;;;;;5049612;28;20044;-71
2023/07/12 02:07:33;;;;;;;5.38;2.83;;;20.40;99.90;;;;;;5052166;28;20051;-71
2023/07/12 02:10:18;;;;;;;4.32;2.60;;;20.40;99.90;;;;;;5037188;28;20049;-70
2023/07/12 02:12:44;;;;;;;4.40;2.80;;;20.40;99.90;;;;;;5029378;28;20040;-72
2023/07/12 02:15:12;;;;;;;3.72;2.90;;;20.40;99.90;;;;;;5055767;28;20087;-70
2023/07/12 02:17:38;;;;;;;4.32;2.58;;;20.30;99.90;;;;;;5046692;28;20187;-71
2023/07/12 02:20:05;;;;;;;4.35;2.78;;;20.30;99.90;;;;;;5026229;28;20041;-72
2023/07/12 02:22:34;;;;;;;7.85;3.10;;;20.20;99.90;;;;;;5028529;28;20049;-71
2023/07/12 02:25:00;;;;;;;5.72;2.70;;;20.20;99.90;;;;;;5047498;28;20128;-71
2023/07/12 02:27:26;;;;;;;3.88;2.70;;;20.10;99.90;;;;;;5048597;28;20281;-71
2023/07/12 02:29:52;;;;;;;5.78;3.13;;;20.10;99.90;;;;;;5054142;28;20103;-72
2023/07/12 02:32:20;;;;;;;4.97;3.00;;;20.00;99.90;;;;;;5048207;28;20041;-72
2023/07/12 02:34:47;;;;;;;6.43;3.97;;;20.00;99.90;;;;;;5033822;28;20072;-71
2023/07/12 02:37:13;;;;;;;4.55;3.50;;;20.00;99.90;;;;;;5046478;28;20044;-72
2023/07/12 02:39:39;;;;;;;5.38;3.50;;;19.90;99.90;;;;;;5052067;28;20055;-70
2023/07/12 02:42:05;;;;;;;6.25;3.60;;;19.80;99.90;;;;;;5024921;28;20110;-72
2023/07/12 02:44:30;;;;;;;6.03;3.60;;;19.80;99.90;;;;;;5051428;28;20056;-72
2023/07/12 02:46:56;;;;;;;6.35;3.90;;;19.70;99.90;;;;;;5033497;28;20396;-71
2023/07/12 02:49:22;;;;;;;6.07;4.03;;;19.70;99.90;;;;;;5046891;28;20132;-71
2023/07/12 02:51:48;;;;;;;7.23;4.27;;;19.70;99.90;;;;;;5032636;28;20131;-71
2023/07/12 02:54:14;;;;;;;5.95;4.22;;;19.60;99.90;;;;;;5033613;28;20129;-71
2023/07/12 02:56:40;;;;;;;4.75;3.60;;;19.60;99.90;;;;;;5048786;28;20124;-72
2023/07/12 02:59:05;;;;;;;8.27;4.25;;;19.60;99.90;;;;;;5032265;28;20044;-71
2023/07/12 03:01:31;;;;;;;7.22;4.53;;;19.60;99.90;;;;;;5030349;28;20048;-70
2023/07/12 03:03:57;;;;;;;7.45;4.50;;;19.60;99.90;;;;;;5033126;28;20048;-72
2023/07/12 03:06:23;;;;;;;6.90;4.00;;;19.60;99.90;;;;;;5051875;28;20059;-71
2023/07/12 03:08:49;;;;;;;6.40;3.58;;;19.60;99.90;;;;;;5047712;28;20467;-71
2023/07/12 03:11:15;;;;;;;6.63;4.05;;;19.60;99.90;;;;;;5037811;28;20131;-72
2023/07/12 03:13:40;;;;;;;7.88;4.15;;;19.60;99.90;;;;;;5049303;28;20040;-72
2023/07/12 03:16:08;;;;;;;6.07;3.72;;;19.60;99.90;;;;;;5051443;28;20040;-71
2023/07/12 03:18:35;;;;;;;7.28;3.85;;;19.60;99.90;;;;;;5048190;28;20047;-71
2023/07/12 03:21:02;;;;;;;6.90;3.80;;;19.60;99.90;;;;;;5052651;28;20094;-71
2023/07/12 03:23:32;;;;;;;6.50;3.70;;;19.70;99.90;;;;;;5046704;28;20078;-70
2023/07/12 03:25:58;;;;;;;6.65;4.10;;;19.70;99.90;;;;;;5047383;28;20543;-71
2023/07/12 03:28:25;;;;;;;6.90;3.70;;;19.70;99.90;;;;;;5054767;28;20127;-71
2023/07/12 03:30:59;;;;;;;9.07;4.20;;;19.70;99.90;;;;;;5053025;28;20496;-71
2023/07/12 03:33:24;;;;;;;6.93;3.95;;;19.80;99.90;;;;;;5036518;28;20093;-70
2023/07/12 03:35:50;;;;;;;9.32;3.88;;;19.80;99.90;;;;;;5052650;28;20048;-71
2023/07/12 03:38:16;;;;;;;5.82;3.95;;;19.70;99.90;;;;;;5055669;28;20036;-71
2023/07/12 03:40:44;;;;;;;7.82;4.20;;;19.70;99.90;;;;;;5035132;28;20080;-71
2023/07/12 03:43:10;;;;;;;7.63;4.00;;;19.60;99.90;;;;;;5030976;28;20135;-69
2023/07/12 03:45:36;;;;;;;7.60;3.90;;;19.50;99.90;;;;;;5046966;28;20100;-71
2023/07/12 03:48:01;;;;;;;7.07;4.25;;;19.40;99.90;;;;;;5039395;28;20048;-72
2023/07/12 03:50:27;;;;;;;8.82;4.30;;;19.40;99.90;;;;;;5052353;28;20087;-71
2023/07/12 03:52:52;;;;;;;7.80;4.43;;;19.40;99.90;;;;;;5046905;28;20076;-73
2023/07/12 03:55:18;;;;;;;9.32;4.15;;;19.40;99.90;;;;;;5059959;28;20140;-72
2023/07/12 03:57:44;;;;;;;10.02;4.45;;;19.50;99.90;;;;;;5052499;28;20084;-71
2023/07/12 04:00:12;;;;;;;9.45;4.50;;;19.50;99.90;;;;;;5052199;28;20052;-71
2023/07/12 04:02:40;;;;;;;10.02;4.40;;;19.50;99.90;;;;;;5046940;28;20048;-71
2023/07/12 04:05:06;;;;;;;9.82;4.90;;;19.50;99.90;;;;;;5053896;28;20472;-72
2023/07/12 04:07:32;;;;;;;7.05;4.53;;;19.50;99.90;;;;;;5051480;28;20277;-71
2023/07/12 04:09:57;;;;;;;8.73;4.68;;;19.40;99.90;;;;;;5044629;28;20527;-72
2023/07/12 04:12:23;;;;;;;11.65;5.13;;;19.50;99.90;;;;;;5051838;28;20404;-71
2023/07/12 04:14:49;;;;;;;9.25;4.72;;;19.40;99.90;;;;;;5053710;28;20391;-71
2023/07/12 04:17:15;;;;;;;8.75;4.93;;;19.40;99.90;;;;;;5049708;28;20041;-70
2023/07/12 04:19:41;;;;;;;7.88;4.72;;;19.40;99.90;;;;;;5031662;28;20055;-72
2023/07/12 04:22:07;;;;;;;7.75;4.95;;;19.40;99.90;;;;;;5058996;28;20054;-71
2023/07/12 04:24:32;;;;;;;7.97;4.30;;;19.40;99.90;;;;;;5051164;28;20443;-71
2023/07/12 04:26:59;;;;;;;8.27;4.70;;;19.40;99.90;;;;;;5053801;28;20083;-74
2023/07/12 04:29:29;;;;;;;8.35;4.80;;;19.40;99.90;;;;;;5055091;28;20183;-72
2023/07/12 04:31:55;;;;;;;9.02;4.47;;;19.40;99.90;;;;;;5044686;28;20492;-72
2023/07/12 04:34:20;;;;;;;7.65;5.00;;;19.30;99.90;;;;;;5033179;28;20044;-71
2023/07/12 04:36:46;;;;;;;8.73;4.40;;;19.30;99.90;;;;;;5049579;28;20044;-71
2023/07/12 04:39:11;;;;;;;7.63;4.38;;;19.30;99.90;;;;;;5045353;28;20048;-73
2023/07/12 04:41:38;;;;;;;8.75;4.03;;;19.30;99.90;;;;;;5036917;28;20041;-71
2023/07/12 04:44:04;;;;;;;8.63;4.50;;;19.30;99.90;;;;;;5050264;28;20198;-71
2023/07/12 04:46:30;;;;;;;11.18;4.40;;;19.30;99.90;;;;;;5029528;28;20036;-71
2023/07/12 04:48:56;;;;;;;8.77;4.03;;;19.30;99.90;;;;;;5043902;28;20443;-70
2023/07/12 04:51:21;;;;;;;7.20;3.92;;;19.30;99.90;;;;;;5054340;28;20044;-71
2023/07/12 04:53:47;;;;;;;9.65;4.07;;;19.20;99.90;;;;;;5046952;28;20060;-70
2023/07/12 04:56:16;;;;;;;7.78;4.07;;;19.20;99.90;;;;;;5051395;28;20451;-71
2023/07/12 04:58:45;;;;;;;7.60;3.72;;;19.20;99.90;;;;;;5053184;28;20054;-70
2023/07/12 05:01:11;;;;;;;8.55;3.67;;;19.10;99.90;;;;;;5031678;28;20140;-71
2023/07/12 05:03:37;;;;;;;10.07;4.30;;;19.10;99.90;;;;;;5035223;28;20631;-70
2023/07/12 05:06:03;;;;;;;9.10;4.00;;;19.10;99.90;;;;;;5048887;28;20190;-72
2023/07/12 05:08:28;;;;;;;8.80;4.25;;;19.10;99.90;;;;;;5054186;28;20102;-70
2023/07/12 05:11:01;;;;;;;8.60;3.90;;;19.10;99.90;;;;;;5053822;28;20036;-72
2023/07/12 05:13:27;;;;;;;11.88;4.60;;;19.20;99.90;;;;;;5045661;28;20033;-72
2023/07/12 05:15:53;;;;;;;7.78;4.30;;;19.10;99.90;;;;;;5029815;28;20407;-71
2023/07/12 05:18:20;;;;;;;10.10;4.90;;;19.10;99.90;;;;;;5031428;28;20136;-71
2023/07/12 05:20:46;;;;;;;9.30;4.37;;;19.20;99.90;;;;;;5022302;28;20067;-72
2023/07/12 05:23:11;;;;;;;8.95;4.03;;;19.20;99.90;;;;;;5049465;28;20422;-72
2023/07/12 05:25:37;;;;;;;10.07;4.30;;;19.20;99.90;;;;;;5055197;28;20040;-73
2023/07/12 05:28:03;;;;;;;10.18;4.63;;;19.20;99.90;;;;;;5040405;28;20044;-72
2023/07/12 05:30:32;;;;;;;9.73;4.65;;;19.30;99.90;;;;;;5048127;28;20962;-71
2023/07/12 05:32:58;;;;;;;10.90;4.47;;;19.30;99.90;;;;;;5030653;28;20045;-72
2023/07/12 05:35:24;;;;;;;8.48;4.40;;;19.30;99.90;;;;;;5038065;28;20044;-72
2023/07/12 05:37:50;;;;;;;10.40;4.72;;;19.30;99.90;;;;;;5038059;28;20079;-68
2023/07/12 05:40:16;;;;;;;9.48;4.88;;;19.40;99.90;;;;;;5050819;28;20062;-70
2023/07/12 05:42:42;;;;;;;10.60;4.88;;;19.50;99.90;;;;;;5052680;28;20053;-70
2023/07/12 05:45:10;;;;;;;12.38;5.05;;;19.60;99.90;;;;;;5042824;28;20053;-69
2023/07/12 05:47:37;;;;;;;12.57;5.10;;;19.70;99.90;;;;;;5049635;28;20045;-70
2023/07/12 05:50:04;;;;;;;;;;;19.70;99.90;;;;;;5043958;28;20059;-70
2023/07/12 05:52:30;;;;;;;11.82;5.05;;;19.60;99.90;;;;;;5035909;28;19927;-71
2023/07/12 05:54:55;;;;;;;11.20;5.60;;;19.60;99.90;;;;;;5026208;28;20056;-71
2023/07/12 05:57:21;;;;;;;11.70;5.57;;;19.60;99.90;;;;;;5052734;28;21178;-69
2023/07/12 05:59:47;;;;;;;13.10;5.55;;;19.70;99.90;;;;;;5030269;28;20080;-71
2023/07/12 06:02:14;;;;;;;10.85;5.90;;;19.60;99.90;;;;;;5048009;28;20446;-71
2023/07/12 06:04:40;;;;;;;10.10;5.80;;;19.70;99.90;;;;;;5029972;28;20060;-71
2023/07/12 06:07:06;;;;;;;15.20;6.72;;;19.70;99.90;;;;;;5035518;28;20681;-69
2023/07/12 06:09:33;;;;;;;12.73;6.70;;;19.70;99.90;;;;;;5050644;28;20050;-71
2023/07/12 06:11:58;;;;;;;9.27;6.05;;;19.70;99.90;;;;;;5030495;28;20400;-69
2023/07/12 06:14:24;;;;;;;12.23;6.75;;;19.70;99.90;;;;;;5055556;28;20053;-69
2023/07/12 06:16:50;;;;;;;11.60;5.75;;;19.80;99.90;;;;;;5023498;28;20078;-70
2023/07/12 06:19:16;;;;;;;9.55;6.18;;;19.80;99.90;;;;;;5047095;28;20122;-70
2023/07/12 06:21:41;;;;;;;11.80;6.20;;;19.90;99.90;;;;;;5028209;28;20048;-69
2023/07/12 06:24:10;;;;;;;13.20;6.63;;;20.00;99.90;;;;;;5046772;28;20131;-69
2023/07/12 06:26:35;;;;;;;11.80;6.47;;;20.00;99.90;;;;;;5047903;28;20051;-70
2023/07/12 06:29:02;;;;;;;12.52;6.90;;;20.00;99.90;;;;;;5029467;28;20476;-70
2023/07/12 06:31:28;;;;;;;15.55;6.78;;;20.10;99.90;;;;;;5019632;28;20095;-71
2023/07/12 06:33:54;;;;;;;10.55;6.30;;;20.10;99.90;;;;;;5043720;28;20048;-70
2023/07/12 06:36:19;;;;;;;14.02;6.93;;;20.20;99.90;;;;;;5043202;28;20036;-69
2023/07/12 06:38:45;;;;;;;12.65;6.40;;;20.20;99.90;;;;;;5021164;28;20466;-69
2023/07/12 06:41:12;;;;;;;12.85;6.40;;;20.20;99.90;;;;;;5046642;28;20073;-72
2023/07/12 06:43:38;;;;;;;12.68;7.28;;;20.30;99.90;;;;;;5040993;28;20044;-70
2023/07/12 06:46:03;;;;;;;12.65;6.90;;;20.30;99.90;;;;;;5045166;28;20424;-69
2023/07/12 06:48:29;;;;;;;12.02;6.90;;;20.30;99.90;;;;;;5044973;28;20105;-69
2023/07/12 06:50:55;;;;;;;12.15;6.43;;;20.30;99.90;;;;;;5052212;28;20060;-69
2023/07/12 06:53:21;;;;;;;13.00;6.70;;;20.30;99.90;;;;;;5047277;28;20569;-69
2023/07/12 06:55:47;;;;;;;11.30;6.40;;;20.30;99.90;;;;;;5023773;28;20040;-69
2023/07/12 06:58:13;;;;;;;12.23;7.03;;;20.40;99.90;;;;;;5051192;28;20120;-71
2023/07/12 07:00:43;;;;;;;12.82;7.13;;;20.40;99.90;;;;;;5039587;28;20082;-70
2023/07/12 07:03:11;;;;;;;11.60;6.50;;;20.50;99.90;;;;;;5045965;28;20041;-70
2023/07/12 07:05:41;;;;;;;12.52;6.60;;;20.60;99.90;;;;;;5044342;28;20781;-70
2023/07/12 07:08:08;;;;;;;11.57;6.72;;;20.60;99.90;;;;;;5029480;28;20048;-73
2023/07/12 07:10:34;;;;;;;17.30;7.07;;;20.70;99.90;;;;;;5026370;28;20041;-71
2023/07/12 07:13:00;;;;;;;13.32;6.00;;;20.80;99.90;;;;;;5047950;28;20125;-71
2023/07/12 07:15:26;;;;;;;10.63;5.73;;;20.90;99.90;;;;;;5051928;28;20105;-71
2023/07/12 07:17:53;;;;;;;11.95;6.40;;;20.90;99.90;;;;;;5052127;28;20381;-74
2023/07/12 07:20:19;;;;;;;12.32;5.72;;;21.00;99.90;;;;;;5041409;28;20074;-73
2023/07/12 07:22:44;;;;;;;12.18;5.97;;;21.00;99.90;;;;;;5052931;28;20048;-72
2023/07/12 07:25:10;;;;;;;11.23;5.72;;;21.00;99.90;;;;;;5022936;28;20040;-72
2023/07/12 07:27:36;;;;;;;11.50;5.78;;;21.00;99.90;;;;;;5054311;28;20048;-71
2023/07/12 07:30:02;;;;;;;11.02;4.95;;;21.00;99.90;;;;;;5054843;28;20051;-72
2023/07/12 07:32:28;;;;;;;13.70;4.97;;;20.90;99.90;;;;;;5054110;28;20048;-74
2023/07/12 07:34:54;;;;;;;10.85;5.18;;;20.80;99.90;;;;;;5050417;28;20076;-71
2023/07/12 07:37:19;;;;;;;11.40;5.45;;;20.70;99.90;;;;;;5043204;28;20055;-72
2023/07/12 07:39:45;;;;;;;13.15;6.18;;;20.60;99.90;;;;;;5054405;28;20040;-72
2023/07/12 07:42:11;;;;;;;9.52;5.45;;;20.50;99.90;;;;;;5035345;28;20575;-71
2023/07/12 07:44:37;;;;;;;11.73;5.78;;;20.50;99.90;;;;;;5041063;28;20523;-69
2023/07/12 07:47:03;;;;;;;12.95;5.80;;;20.60;99.90;;;;;;5052057;28;20147;-72
2023/07/12 07:49:29;;;;;;;11.57;5.20;;;20.60;99.90;;;;;;5052655;28;20189;-73
2023/07/12 07:51:55;;;;;;;9.82;4.85;;;20.70;99.90;;;;;;5045352;28;20044;-72
2023/07/12 07:54:20;;;;;;;11.70;4.90;;;20.80;99.90;;;;;;5044452;28;20052;-72
2023/07/12 07:56:48;;;;;;;10.85;4.90;;;20.80;99.90;;;;;;5022567;28;20083;-72
2023/07/12 07:59:15;;;;;;;12.40;5.30;;;20.80;99.90;;;;;;5050204;28;20847;-74
2023/07/12 08:01:41;;;;;;;11.50;4.30;;;20.90;99.90;;;;;;5035671;28;20088;-73
2023/07/12 08:04:08;;;;;;;11.82;5.50;;;20.90;99.90;;;;;;5030880;28;20053;-74
2023/07/12 08:06:35;;;;;;;9.93;4.90;;;20.90;99.90;;;;;;5050781;28;20057;-74
2023/07/12 08:09:01;;;;;;;14.07;5.15;;;20.90;99.90;;;;;;5042143;28;20044;-71
2023/07/12 08:11:27;;;;;;;9.57;4.35;;;21.00;99.90;;;;;;5054085;28;20202;-74
2023/07/12 08:13:53;;;;;;;10.67;4.73;;;21.00;99.90;;;;;;5043784;28;20044;-73
2023/07/12 08:16:19;;;;;;;9.70;4.63;;;21.10;99.90;;;;;;5055118;28;20853;-73
2023/07/12 08:18:45;;;;;;;10.40;4.45;;;21.20;99.90;;;;;;5034793;28;20055;-72
2023/07/12 08:21:12;;;;;;;9.52;4.38;;;21.30;99.90;;;;;;5053464;28;20492;-69
2023/07/12 08:23:38;;;;;;;13.20;4.82;;;21.40;99.90;;;;;;5052064;28;20459;-70
2023/07/12 08:26:03;;;;;;;13.15;4.85;;;21.50;99.90;;;;;;5050420;28;20032;-71
2023/07/12 08:28:29;;;;;;;9.35;4.35;;;21.60;99.90;;;;;;5061753;28;20048;-72
2023/07/12 08:30:55;;;;;;;10.63;4.40;;;21.70;99.90;;;;;;5052403;28;20037;-71
2023/07/12 08:33:20;;;;;;;9.60;4.53;;;21.90;99.90;;;;;;5046605;28;20044;-71
2023/07/12 08:35:47;;;;;;;11.35;4.72;;;21.90;99.90;;;;;;5037683;28;20376;-71
2023/07/12 08:38:13;;;;;;;12.63;5.22;;;21.90;99.90;;;;;;5060967;28;20051;-70
2023/07/12 08:40:43;;;;;;;11.75;4.90;;;21.90;99.90;;;;;;5053800;28;20032;-71
2023/07/12 08:43:15;;;;;;;10.68;5.25;;;21.90;99.90;;;;;;5058423;28;20067;-70
2023/07/12 08:45:43;;;;;;;15.52;5.93;;;21.80;99.90;;;;;;5042682;28;20064;-71
2023/07/12 08:48:24;;;;;;;10.60;5.15;;;21.80;99.90;;;;;;5054766;28;20419;-70
2023/07/12 08:50:50;;;;;;;12.02;5.47;;;21.70;99.90;;;;;;5054563;28;21877;-72
2023/07/12 08:53:29;;;;;;;11.63;5.73;;;21.70;99.90;;;;;;5039940;28;20119;-68
2023/07/12 08:55:59;;;;;;;11.52;5.15;;;21.60;99.90;;;;;;5056968;28;20047;-69
2023/07/12 08:58:35;;;;;;;10.43;4.88;;;21.60;99.90;;;;;;5055977;28;20059;-69
2023/07/12 09:01:14;;;;;;;9.50;5.03;;;21.50;99.90;;;;;;5050599;28;20067;-70
2023/07/12 09:03:40;;;;;;;14.77;5.50;;;21.40;99.90;;;;;;5051915;28;20048;-71
2023/07/12 09:06:15;;;;;;;10.57;4.70;;;21.20;99.90;;;;;;5031477;28;20168;-70
2023/07/12 09:08:48;;;;;;;11.65;5.35;;;21.30;99.90;;;;;;5050310;28;20051;-70
2023/07/12 09:11:19;;;;;;;15.13;5.82;;;21.40;99.90;;;;;;5043280;28;20056;-69
2023/07/12 09:13:46;;;;;;;11.77;5.55;;;21.40;99.90;;;;;;5060324;28;20053;-70
2023/07/12 09:16:30;;;;;;;12.68;5.68;;;21.60;99.90;;;;;;5061310;28;20666;-69
2023/07/12 09:18:59;;;;;;;14.20;6.15;;;21.80;99.90;;;;;;5055132;28;20052;-70
2023/07/12 09:21:32;;;;;;;11.75;5.53;;;22.00;99.90;;;;;;5052818;28;20037;-71
2023/07/12 09:24:09;;;;;;;12.60;6.05;;;22.10;99.90;;;;;;5049661;28;20049;-70
2023/07/12 09:26:35;;;;;;;;;;;22.20;99.90;;;;;;5035485;28;20037;-73
2023/07/12 09:29:22;;;;;;;8.97;5.13;;;22.30;99.90;;;;;;5047907;28;19947;-69
2023/07/12 09:31:49;;;;;;;12.20;5.20;;;22.30;99.90;;;;;;5054058;28;20049;-69
2023/07/12 09:34:22;;;;;;;11.65;5.55;;;22.30;99.90;;;;;;5052301;28;20120;-70
2023/07/12 09:36:56;;;;;;;10.63;5.13;;;22.30;99.90;;;;;;5048784;28;20055;-70
2023/07/12 09:39:22;;;;;;;12.07;5.63;;;22.20;99.90;;;;;;5050679;28;20084;-71
2023/07/12 09:41:50;;;;;;;11.07;5.20;;;22.10;99.90;;;;;;5054487;28;20044;-72
2023/07/12 09:44:16;;;;;;;11.60;5.25;;;22.10;99.90;;;;;;5052172;28;20045;-71
2023/07/12 09:46:50;;;;;;;12.98;5.60;;;22.00;99.90;;;;;;5059284;28;20056;-70
2023/07/12 09:49:25;;;;;;;12.57;4.72;;;22.10;99.90;;;;;;5058147;28;20051;-71
2023/07/12 09:52:09;;;;;;;10.43;5.03;;;22.10;99.90;;;;;;5041948;28;20052;-71
2023/07/12 09:55:03;;;;;;;10.00;4.82;;;22.10;99.90;;;;;;5037054;28;20060;-70
2023/07/12 09:57:52;;;;;;;10.07;4.25;;;22.00;99.90;;;;;;5058950;28;20044;-70
2023/07/12 10:00:33;;;;;;;12.23;4.40;;;22.00;99.90;;;;;;5055171;28;20590;-70
2023/07/12 10:03:14;;;;;;;9.57;3.88;;;22.00;99.90;;;;;;5043463;28;20518;-71
2023/07/12 10:05:57;;;;;;;10.48;4.38;;;22.10;99.90;;;;;;5027115;28;20044;-70
2023/07/12 10:08:44;;;;;;;11.57;4.35;;;22.30;99.90;;;;;;5051542;28;20033;-71
2023/07/12 10:11:31;;;;;;;8.57;4.82;;;22.20;99.90;;;;;;5042202;28;20075;-71
2023/07/12 10:14:02;;;;;;;13.65;5.55;;;22.10;99.90;;;;;;5031613;28;20041;-72
2023/07/12 10:16:34;;;;;;;12.07;5.03;;;21.80;99.90;;;;;;5034213;28;20062;-74
2023/07/12 10:19:22;;;;;;;10.85;5.15;;;21.60;99.90;;;;;;5033568;28;20040;-72
2023/07/12 10:21:54;;;;;;;12.63;5.05;;;21.50;99.90;;;;;;5048339;28;20040;-71
2023/07/12 10:24:28;;;;;;;12.10;4.97;;;21.40;99.90;;;;;;5037877;28;20040;-69
2023/07/12 10:26:55;;;;;;;13.57;5.57;;;21.40;99.90;;;;;;5038148;28;20045;-73
2023/07/12 10:29:50;;;;;;;11.10;4.63;;;21.40;99.90;;;;;;5037479;28;20053;-73
2023/07/12 10:32:29;;;;;;;11.75;4.50;;;21.50;99.90;;;;;;5046682;28;20674;-72
2023/07/12 10:35:13;;;;;;;10.98;4.65;;;21.40;99.90;;;;;;5032626;28;20052;-73
2023/07/12 10:38:11;;;;;;;15.68;4.95;;;21.30;99.90;;;;;;5018830;28;20060;-73
2023/07/12 10:40:42;;;;;;;7.88;3.22;;;21.30;99.90;;;;;;5048309;28;20370;-73
2023/07/12 10:43:32;;;;;;;9.40;2.58;;;20.90;99.90;;;;;;5056692;28;20049;-72
2023/07/12 10:46:32;;;;;;;7.40;3.20;;;20.50;99.90;;;;;;5031182;28;20057;-71
2023/07/12 10:49:02;;;;;;;7.78;2.92;;;20.30;99.90;;;;;;5051497;28;20131;-73
2023/07/12 10:51:37;;;;;;;5.20;2.55;;;20.10;99.90;;;;;;5045551;28;20057;-72
2023/07/12 10:54:04;;;;;;;5.03;1.85;;;20.10;99.90;;;;;;5023993;28;20503;-73
2023/07/12 10:56:50;;;;;;;4.55;2.08;;;20.00;99.90;;;;;;5020247;28;20090;-72
2023/07/12 10:59:31;;;;;;;5.80;2.42;;;20.00;99.90;;;;;;5038293;28;20052;-72
2023/07/12 11:02:19;;;;;;;6.93;2.53;;;19.90;99.90;;;;;;5034684;28;20053;-72
2023/07/12 11:04:49;;;;;;;6.78;3.10;;;20.00;99.90;;;;;;5052394;28;20534;-71
2023/07/12 11:07:15;;;;;;;8.75;3.80;;;20.20;99.90;;;;;;5039706;28;20078;-72
2023/07/12 11:09:44;;;;;;;9.05;3.42;;;20.30;99.90;;;;;;5037360;28;20069;-71
2023/07/12 11:12:13;;;;;;;9.75;3.90;;;20.50;99.90;;;;;;5029212;28;20752;-70
2023/07/12 11:14:38;;;;;;;8.60;4.05;;;20.60;99.90;;;;;;5033420;28;20056;-73
2023/07/12 11:17:04;;;;;;;9.30;3.90;;;20.80;99.90;;;;;;5038972;28;20467;-71
2023/07/12 11:19:36;;;;;;;9.40;4.30;;;20.80;99.90;;;;;;5041356;28;20188;-71
2023/07/12 11:22:24;;;;;;;11.23;4.97;;;20.90;99.90;;;;;;5029108;28;20610;-71
2023/07/12 11:24:58;;;;;;;10.43;4.80;;;21.00;99.90;;;;;;5054428;28;20053;-72
2023/07/12 11:27:42;;;;;;;11.95;4.82;;;21.10;99.90;;;;;;5034261;28;20060;-72
2023/07/12 11:30:20;;;;;;;9.10;4.22;;;21.20;99.90;;;;;;5034983;28;20040;-73
2023/07/12 11:32:53;;;;;;;11.23;3.90;;;21.40;99.90;;;;;;5051477;28;20140;-74
2023/07/12 11:35:31;;;;;;;9.65;3.92;;;21.50;99.90;;;;;;5043810;28;20044;-74
2023/07/12 11:37:56;;;;;;;9.18;4.05;;;21.70;99.90;;;;;;5023613;28;20060;-72
2023/07/12 11:40:29;;;;;;;7.68;3.83;;;21.90;99.90;;;;;;5034029;28;20055;-72
2023/07/12 11:42:56;;;;;;;9.10;3.45;;;22.00;99.90;;;;;;5035160;28;21765;-71
2023/07/12 11:45:22;;;;;;;8.07;3.90;;;22.20;99.90;;;;;;5049190;28;20045;-71
2023/07/12 11:47:52;;;;;;;8.65;3.90;;;22.30;99.90;;;;;;5046600;28;20090;-72
2023/07/12 11:50:23;;;;;;;8.35;3.60;;;22.50;99.90;;;;;;5033277;28;20049;-74
2023/07/12 11:52:50;;;;;;;8.63;3.72;;;22.70;99.90;;;;;;5042618;28;21300;-73
2023/07/12 11:55:26;;;;;;;7.70;3.97;;;22.80;99.90;;;;;;5028210;28;20048;-73
2023/07/12 11:57:52;;;;;;;9.93;3.50;;;22.90;99.90;;;;;;5052873;28;20063;-71
2023/07/12 12:00:20;;;;;;;8.95;3.67;;;22.90;99.90;;;;;;5053476;28;20734;-72
2023/07/12 12:02:51;;;;;;;10.15;3.60;;;23.10;99.90;;;;;;5054051;28;20739;-71
2023/07/12 12:05:24;;;;;;;6.45;3.20;;;23.30;99.90;;;;;;5052117;28;20130;-74
2023/07/12 12:07:53;;;;;;;7.28;3.58;;;23.30;99.90;;;;;;5055721;28;20036;-71
2023/07/12 12:10:25;;;;;;;7.80;3.28;;;23.20;99.90;;;;;;5048191;28;20089;-72
2023/07/12 12:12:52;;;;;;;8.55;3.50;;;23.30;99.90;;;;;;5029835;28;20044;-72
2023/07/12 12:15:21;;;;;;;9.55;3.50;;;23.40;99.90;;;;;;5052671;28;20225;-71
2023/07/12 12:17:47;;;;;;;7.07;2.78;;;23.50;99.90;;;;;;5056381;28;20044;-73
2023/07/12 12:20:17;;;;;;;9.65;3.17;;;23.50;99.90;;;;;;5051674;28;20051;-71
2023/07/12 12:22:50;;;;;;;7.13;3.50;;;23.50;99.90;;;;;;5034423;28;20648;-70
2023/07/12 12:25:21;;;;;;;9.43;3.42;;;23.40;99.90;;;;;;5055308;28;20048;-69
2023/07/12 12:27:48;;;;;;;8.73;3.50;;;23.30;99.90;;;;;;5059590;28;20052;-72
2023/07/12 12:30:19;;;;;;;8.07;3.35;;;23.20;99.90;;;;;;5048982;28;20049;-72
2023/07/12 12:33:03;;;;;;;8.45;3.25;;;23.40;99.90;;;;;;5055065;28;20040;-71
2023/07/12 12:35:29;;;;;;;7.97;2.95;;;23.60;99.90;;;;;;5027122;28;20055;-70
2023/07/12 12:38:02;;;;;;;7.32;2.78;;;23.80;99.90;;;;;;5057976;28;20131;-71
2023/07/12 12:40:28;;;;;;;6.30;2.72;;;23.90;99.90;;;;;;5059593;28;20044;-71
2023/07/12 12:43:02;;;;;;;7.82;2.80;;;23.90;99.90;;;;;;5060907;28;20411;-71
2023/07/12 12:45:33;;;;;;;8.10;2.75;;;23.90;99.90;;;;;;5056976;28;20152;-71
2023/07/12 12:47:59;;;;;;;9.57;2.72;;;23.70;99.90;;;;;;5041535;28;20045;-73
2023/07/12 12:50:26;;;;;;;10.48;3.40;;;23.70;99.90;;;;;;5051050;28;20060;-74
2023/07/12 12:52:54;;;;;;;6.00;3.03;;;23.60;99.90;;;;;;5053237;28;20041;-72